createdAt,value
2023-02-22T00:01:35.242Z,4.10
2023-02-22T00:04:02.973Z,3.90
2023-02-22T00:06:31.164Z,4.20
2023-02-22T00:08:58.628Z,3.90
2023-02-22T00:11:26.274Z,3.80
2023-02-22T00:13:57.082Z,3.20
2023-02-22T00:16:25.020Z,3.50
2023-02-22T00:18:53.170Z,3.40
2023-02-22T00:21:20.713Z,3.90
2023-02-22T00:23:48.291Z,3.70
2023-02-22T00:26:18.229Z,3.60
2023-02-22T00:28:45.745Z,3.80
2023-02-22T00:31:15.198Z,3.50
2023-02-22T00:33:43.124Z,3.30
2023-02-22T00:36:10.758Z,2.90
2023-02-22T00:38:38.238Z,2.90
2023-02-22T00:41:05.750Z,2.20
2023-02-22T00:43:33.214Z,3.00
2023-02-22T00:46:00.946Z,3.50
2023-02-22T00:48:28.577Z,3.30
2023-02-22T00:50:56.126Z,3.30
2023-02-22T00:53:23.690Z,3.40
2023-02-22T00:55:51.233Z,3.60
2023-02-22T00:58:18.734Z,3.90
2023-02-22T01:00:46.240Z,4.10
2023-02-22T01:03:14.688Z,2.70
2023-02-22T01:05:42.570Z,3.00
2023-02-22T01:08:10.293Z,3.50
2023-02-22T01:10:37.834Z,3.50
2023-02-22T01:13:08.699Z,3.60
2023-02-22T01:15:36.600Z,3.30
2023-02-22T01:18:05.157Z,3.30
2023-02-22T01:20:32.658Z,2.20
2023-02-22T01:23:00.156Z,2.00
2023-02-22T01:25:27.649Z,2.40
2023-02-22T01:27:55.079Z,3.30
2023-02-22T01:30:22.712Z,3.00
2023-02-22T01:32:51.163Z,3.50
2023-02-22T01:35:18.663Z,5.50
2023-02-22T01:37:46.221Z,4.80
2023-02-22T01:40:13.717Z,5.20
2023-02-22T01:42:41.147Z,7.00
2023-02-22T01:45:08.647Z,4.10
2023-02-22T01:47:36.236Z,4.00
2023-02-22T01:50:03.688Z,3.00
2023-02-22T01:52:31.183Z,2.70
2023-02-22T01:54:58.649Z,3.60
2023-02-22T01:57:26.090Z,3.40
2023-02-22T01:59:53.657Z,3.20
2023-02-22T02:02:25.219Z,2.60
2023-02-22T02:04:52.831Z,2.70
2023-02-22T02:07:21.150Z,2.40
2023-02-22T02:09:48.589Z,2.10
2023-02-22T02:12:15.996Z,2.60
2023-02-22T02:14:43.969Z,2.30
2023-02-22T02:17:11.771Z,2.60
2023-02-22T02:19:39.223Z,2.30
2023-02-22T02:22:06.726Z,3.00
2023-02-22T02:24:34.345Z,4.10
2023-02-22T02:27:03.035Z,2.90
2023-02-22T02:29:30.586Z,2.90
2023-02-22T02:31:58.151Z,2.20
2023-02-22T02:34:25.706Z,2.00
2023-02-22T02:36:53.196Z,1.80
2023-02-22T02:39:20.642Z,2.20
2023-02-22T02:41:48.120Z,3.40
2023-02-22T02:44:15.996Z,2.70
2023-02-22T02:46:43.457Z,1.70
2023-02-22T02:49:11.115Z,2.20
2023-02-22T02:51:38.614Z,2.10
2023-02-22T02:54:06.115Z,2.90
2023-02-22T02:56:33.585Z,2.30
2023-02-22T02:59:01.173Z,2.50
2023-02-22T03:01:29.056Z,2.80
2023-02-22T03:03:56.594Z,2.40
2023-02-22T03:06:24.144Z,2.50
2023-02-22T03:08:51.674Z,2.60
2023-02-22T03:11:19.314Z,3.10
2023-02-22T03:13:47.384Z,3.20
2023-02-22T03:16:14.938Z,3.30
2023-02-22T03:18:42.991Z,3.10
2023-02-22T03:21:10.449Z,3.10
2023-02-22T03:23:37.899Z,3.40
2023-02-22T03:26:05.410Z,3.80
2023-02-22T03:28:32.998Z,3.00
2023-02-22T03:31:00.961Z,3.00
2023-02-22T03:33:33.723Z,3.00
2023-02-22T03:36:01.185Z,4.20
2023-02-22T03:38:29.011Z,3.80
2023-02-22T03:40:59.445Z,3.90
2023-02-22T03:43:27.016Z,4.00
2023-02-22T03:45:54.462Z,3.40
2023-02-22T03:48:22.236Z,3.60
2023-02-22T03:50:50.977Z,4.00
2023-02-22T03:53:18.620Z,3.60
2023-02-22T03:55:46.194Z,3.40
2023-02-22T03:58:13.783Z,3.10
2023-02-22T04:00:44.582Z,2.60
2023-02-22T04:03:12.200Z,4.50
2023-02-22T04:05:39.911Z,5.30
2023-02-22T04:08:07.451Z,4.50
2023-02-22T04:10:37.949Z,3.70
2023-02-22T04:13:07.081Z,3.50
2023-02-22T04:15:34.556Z,4.30
2023-02-22T04:18:02.152Z,4.00
2023-02-22T04:20:29.688Z,3.70
